Time;durP1;ratioP1;P1;durP2;ratioP2;P2;SDS_P1;SDS_P2;PMS_P1;PMS_P2;Temp;Humidity;BMP_temperature;BMP_pressure;BME280_temperature;BME280_humidity;BME280_pressure;Samples;Min_cycle;Max_cycle;Signal;HPM_P1;HPM_P2
2023/09/14 00:00:19;;;;;;;;;;;22.00;50.90;;;;;;5033999;27;86298;-55
2023/09/14 00:02:44;;;;;;;;;;;22.00;50.80;;;;;;5034189;28;91826;-54
2023/09/14 00:05:10;;;;;;;;;;;22.00;50.80;;;;;;5035075;28;87357;-54
2023/09/14 00:07:35;;;;;;;;;;;22.00;50.70;;;;;;5033414;27;88823;-55
2023/09/14 00:10:01;;;;;;;;;;;21.90;50.70;;;;;;5036772;28;88365;-54
2023/09/14 00:12:26;;;;;;;;;;;22.00;50.80;;;;;;5037228;28;87229;-51
2023/09/14 00:14:52;;;;;;;;;;;22.00;50.70;;;;;;5032510;28;89779;-52
2023/09/14 00:17:17;;;;;;;;;;;22.00;50.70;;;;;;5035273;28;87153;-54
2023/09/14 00:19:43;;;;;;;;;;;22.00;50.20;;;;;;5032994;28;87534;-57
2023/09/14 00:22:08;;;;;;;;;;;22.00;51.40;;;;;;5033688;28;88244;-55
2023/09/14 00:24:35;;;;;;;;;;;21.90;50.80;;;;;;5034544;28;86401;-57
2023/09/14 00:27:00;;;;;;;;;;;21.90;50.80;;;;;;5036727;28;87034;-54
2023/09/14 00:29:26;;;;;;;;;;;21.90;50.80;;;;;;5032501;28;87160;-56
2023/09/14 00:31:51;;;;;;;;;;;21.90;50.80;;;;;;5031385;28;88186;-58
2023/09/14 00:34:17;;;;;;;;;;;21.90;50.90;;;;;;5038441;28;87887;-55
2023/09/14 00:36:42;;;;;;;;;;;21.90;50.80;;;;;;5034771;28;87230;-55
2023/09/14 00:39:09;;;;;;;;;;;21.80;50.80;;;;;;5035062;27;87433;-56
2023/09/14 00:41:34;;;;;;;;;;;21.80;50.80;;;;;;5035275;28;88678;-56
2023/09/14 00:43:59;;;;;;;;;;;21.80;50.80;;;;;;5031881;28;87197;-55
2023/09/14 00:46:25;;;;;;;;;;;21.80;50.80;;;;;;5035979;28;87414;-54
2023/09/14 00:48:51;;;;;;;;;;;21.80;50.90;;;;;;5033869;28;87961;-55
2023/09/14 00:51:17;;;;;;;;;;;21.80;50.90;;;;;;5035893;28;87114;-55
2023/09/14 00:53:43;;;;;;;;;;;21.80;50.90;;;;;;5032000;28;87524;-53
2023/09/14 00:56:10;;;;;;;;;;;21.70;50.80;;;;;;5037147;28;89699;-55
2023/09/14 00:58:37;;;;;;;;;;;21.70;50.80;;;;;;5033649;28;88403;-54
2023/09/14 01:01:03;;;;;;;;;;;21.70;50.90;;;;;;5035126;28;88468;-56
2023/09/14 01:03:30;;;;;;;;;;;21.70;50.90;;;;;;5032694;28;86905;-54
2023/09/14 01:05:55;;;;;;;;;;;21.70;50.90;;;;;;5032690;28;87864;-56
2023/09/14 01:08:21;;;;;;;;;;;21.70;50.90;;;;;;5032720;28;89286;-57
2023/09/14 01:10:46;;;;;;;;;;;21.70;50.90;;;;;;5034515;28;87118;-54
2023/09/14 01:13:15;;;;;;;;;;;21.70;50.90;;;;;;5035783;28;87950;-56
2023/09/14 01:15:44;;;;;;;;;;;21.70;50.90;;;;;;5033258;28;88221;-57
2023/09/14 01:18:31;;;;;;;;;;;21.60;51.00;;;;;;5033378;28;87186;-50
2023/09/14 01:21:24;;;;;;;;;;;21.70;51.00;;;;;;5031629;28;89611;-57
2023/09/14 01:24:05;;;;;;;;;;;21.60;50.90;;;;;;5033437;28;87126;-54
2023/09/14 01:26:32;;;;;;;;;;;21.60;51.00;;;;;;5033201;27;87431;-55
2023/09/14 01:28:59;;;;;;;;;;;21.60;51.00;;;;;;5035460;28;89496;-57
2023/09/14 01:31:24;;;;;;;;;;;21.60;50.90;;;;;;5033057;28;87240;-56
2023/09/14 01:33:50;;;;;;;;;;;21.60;51.00;;;;;;5032618;28;88781;-54
2023/09/14 01:36:15;;;;;;;;;;;21.60;51.00;;;;;;5033602;28;88112;-55
2023/09/14 01:38:41;;;;;;;;;;;21.60;51.00;;;;;;5037248;28;86393;-56
2023/09/14 01:41:07;;;;;;;;;;;21.50;50.90;;;;;;5034865;28;88473;-54
2023/09/14 01:43:33;;;;;;;;;;;21.50;50.90;;;;;;5032552;28;87129;-54
2023/09/14 01:45:59;;;;;;;;;;;21.50;51.00;;;;;;5031620;28;88104;-54
2023/09/14 01:48:24;;;;;;;;;;;21.50;51.00;;;;;;5029812;28;89180;-57
2023/09/14 01:50:50;;;;;;;;;;;21.50;51.00;;;;;;5032425;28;87358;-54
2023/09/14 01:53:15;;;;;;;;;;;21.50;51.00;;;;;;5034127;27;87857;-54
2023/09/14 01:55:41;;;;;;;;;;;21.40;51.00;;;;;;5034017;28;89475;-53
2023/09/14 01:58:06;;;;;;;;;;;21.40;51.00;;;;;;5033081;28;87086;-54
2023/09/14 02:00:32;;;;;;;;;;;21.40;51.00;;;;;;5037994;28;87951;-55
2023/09/14 02:02:57;;;;;;;;;;;21.40;51.10;;;;;;5031421;28;86508;-56
2023/09/14 02:05:23;;;;;;;;;;;21.40;51.10;;;;;;5031653;28;86948;-55
2023/09/14 02:07:48;;;;;;;;;;;21.40;51.10;;;;;;5032200;28;87179;-53
2023/09/14 02:10:14;;;;;;;;;;;21.40;51.10;;;;;;5032424;28;88569;-56
2023/09/14 02:12:40;;;;;;;;;;;21.40;51.10;;;;;;5033468;27;88613;-56
2023/09/14 02:15:06;;;;;;;;;;;21.40;51.10;;;;;;5033991;28;87929;-56
2023/09/14 02:17:32;;;;;;;;;;;21.30;51.10;;;;;;5029987;28;87724;-54
2023/09/14 02:19:58;;;;;;;;;;;21.30;51.10;;;;;;5035154;28;87406;-55
2023/09/14 02:22:23;;;;;;;;;;;21.30;51.10;;;;;;5034770;28;88589;-57
2023/09/14 02:24:49;;;;;;;;;;;21.30;51.10;;;;;;5033889;27;87523;-58
2023/09/14 02:27:14;;;;;;;;;;;21.30;51.10;;;;;;5031371;28;87153;-53
2023/09/14 02:29:40;;;;;;;;;;;21.30;51.20;;;;;;5032124;28;87384;-56
2023/09/14 02:32:07;;;;;;;;;;;21.30;50.70;;;;;;5031806;28;87750;-56
2023/09/14 02:34:32;;;;;;;;;;;21.30;51.10;;;;;;5033231;28;89279;-55
2023/09/14 02:36:58;;;;;;;;;;;21.30;51.20;;;;;;5031415;28;87139;-51
2023/09/14 02:39:23;;;;;;;;;;;21.20;51.20;;;;;;5035037;28;87617;-52
2023/09/14 02:41:49;;;;;;;;;;;21.20;51.20;;;;;;5031929;28;88258;-52
2023/09/14 02:44:14;;;;;;;;;;;21.20;51.20;;;;;;5036714;28;87262;-53
2023/09/14 02:46:39;;;;;;;;;;;21.20;51.30;;;;;;5032015;28;87622;-53
2023/09/14 02:49:05;;;;;;;;;;;21.20;51.30;;;;;;5031079;28;87152;-54
2023/09/14 02:51:30;;;;;;;;;;;21.10;51.20;;;;;;5031060;28;88390;-57
2023/09/14 02:53:56;;;;;;;;;;;21.10;51.20;;;;;;5029151;28;89584;-51
2023/09/14 02:56:21;;;;;;;;;;;21.10;51.20;;;;;;5034776;28;87783;-51
2023/09/14 02:58:47;;;;;;;;;;;21.10;51.20;;;;;;5031171;28;88045;-51
2023/09/14 03:01:12;;;;;;;;;;;21.20;51.30;;;;;;5033176;28;88353;-56
2023/09/14 03:03:39;;;;;;;;;;;21.10;51.30;;;;;;5029865;28;87161;-53
2023/09/14 03:06:04;;;;;;;;;;;21.10;51.40;;;;;;5035868;28;87746;-54
2023/09/14 03:08:30;;;;;;;;;;;21.10;51.30;;;;;;5032237;28;87070;-52
2023/09/14 03:10:56;;;;;;;;;;;21.10;51.30;;;;;;5034336;28;87360;-54
2023/09/14 03:13:22;;;;;;;;;;;21.10;51.40;;;;;;5030639;28;88207;-53
2023/09/14 03:15:57;;;;;;;;;;;21.00;51.30;;;;;;5035466;28;86323;-56
2023/09/14 03:18:22;;;;;;;;;;;21.00;51.30;;;;;;5029956;28;87156;-55
2023/09/14 03:20:51;;;;;;;;;;;21.00;51.40;;;;;;5031992;28;88052;-58
2023/09/14 03:23:16;;;;;;;;;;;21.00;51.50;;;;;;5028347;28;88145;-55
2023/09/14 03:25:42;;;;;;;;;;;21.00;51.50;;;;;;5036739;28;88667;-57
2023/09/14 03:28:08;;;;;;;;;;;21.00;51.50;;;;;;5031722;28;87041;-56
2023/09/14 03:30:36;;;;;;;;;;;20.90;51.50;;;;;;5031674;27;87546;-55
2023/09/14 03:33:02;;;;;;;;;;;21.00;51.40;;;;;;5030154;28;88147;-53
2023/09/14 03:35:27;;;;;;;;;;;20.90;51.40;;;;;;5032575;27;87577;-54
2023/09/14 03:37:53;;;;;;;;;;;20.90;51.50;;;;;;5030796;27;87568;-54
2023/09/14 03:40:18;;;;;;;;;;;20.90;51.50;;;;;;5034331;28;87459;-53
2023/09/14 03:42:44;;;;;;;;;;;20.90;51.50;;;;;;5031046;28;87453;-54
2023/09/14 03:45:09;;;;;;;;;;;20.90;51.50;;;;;;5033328;28;87471;-57
2023/09/14 03:47:35;;;;;;;;;;;20.90;51.50;;;;;;5034425;28;89049;-55
2023/09/14 03:50:00;;;;;;;;;;;20.80;51.50;;;;;;5030123;28;88003;-56
2023/09/14 03:52:26;;;;;;;;;;;20.90;51.60;;;;;;5032621;28;87776;-54
2023/09/14 03:54:51;;;;;;;;;;;20.90;51.50;;;;;;5030930;28;87014;-57
2023/09/14 03:57:17;;;;;;;;;;;20.80;51.50;;;;;;5033940;28;87702;-51
2023/09/14 03:59:43;;;;;;;;;;;20.80;51.60;;;;;;5030201;28;88158;-57
2023/09/14 04:02:09;;;;;;;;;;;20.80;52.20;;;;;;5032647;28;87130;-52
2023/09/14 04:04:35;;;;;;;;;;;20.80;51.60;;;;;;5030348;28;87939;-52
2023/09/14 04:07:00;;;;;;;;;;;20.80;51.60;;;;;;5030426;28;88742;-54
2023/09/14 04:09:29;;;;;;;;;;;20.70;51.50;;;;;;5033275;28;87573;-54
2023/09/14 04:11:57;;;;;;;;;;;20.80;51.60;;;;;;5032265;28;90407;-53
2023/09/14 04:14:23;;;;;;;;;;;20.70;51.60;;;;;;5030654;28;87083;-55
2023/09/14 04:16:48;;;;;;;;;;;20.70;51.70;;;;;;5032767;28;88122;-57
2023/09/14 04:19:14;;;;;;;;;;;20.70;51.60;;;;;;5028383;28;88265;-57
2023/09/14 04:21:41;;;;;;;;;;;20.70;51.60;;;;;;5031773;28;87020;-57
2023/09/14 04:24:07;;;;;;;;;;;20.70;51.60;;;;;;5032716;28;87938;-53
2023/09/14 04:26:33;;;;;;;;;;;20.70;51.60;;;;;;5029904;28;88222;-54
2023/09/14 04:28:58;;;;;;;;;;;20.70;51.70;;;;;;5033762;28;86062;-53
2023/09/14 04:31:25;;;;;;;;;;;20.70;51.60;;;;;;5033064;28;87036;-53
2023/09/14 04:33:50;;;;;;;;;;;20.70;51.70;;;;;;5029884;28;87226;-51
2023/09/14 04:36:16;;;;;;;;;;;20.70;51.70;;;;;;5031242;27;88130;-57
2023/09/14 04:38:42;;;;;;;;;;;20.60;51.70;;;;;;5031708;28;88405;-54
2023/09/14 04:41:07;;;;;;;;;;;20.60;51.70;;;;;;5028372;28;87287;-56
2023/09/14 04:43:33;;;;;;;;;;;20.60;51.70;;;;;;5027300;28;87653;-56
2023/09/14 04:46:03;;;;;;;;;;;20.60;51.70;;;;;;5028218;28;89522;-57
2023/09/14 04:48:28;;;;;;;;;;;20.60;51.70;;;;;;5033469;28;87121;-55
2023/09/14 04:50:55;;;;;;;;;;;20.60;51.70;;;;;;5034477;28;87303;-56
2023/09/14 04:53:20;;;;;;;;;;;20.60;51.70;;;;;;5031852;28;87696;-55
2023/09/14 04:55:46;;;;;;;;;;;20.60;51.80;;;;;;5035267;28;87543;-57
2023/09/14 04:58:11;;;;;;;;;;;20.60;51.90;;;;;;5033579;28;88089;-56
2023/09/14 05:00:37;;;;;;;;;;;20.60;51.80;;;;;;5028924;28;88119;-55
2023/09/14 05:03:04;;;;;;;;;;;20.60;51.70;;;;;;5032813;28;91335;-54
2023/09/14 05:05:33;;;;;;;;;;;20.60;51.70;;;;;;5031335;28;89760;-54
2023/09/14 05:07:59;;;;;;;;;;;20.60;51.70;;;;;;5034470;28;87538;-53
2023/09/14 05:10:25;;;;;;;;;;;20.60;51.80;;;;;;5034863;28;87678;-57
2023/09/14 05:12:51;;;;;;;;;;;20.60;51.80;;;;;;5024406;28;88900;-56
2023/09/14 05:15:17;;;;;;;;;;;20.50;51.70;;;;;;5038153;28;87392;-53
2023/09/14 05:17:43;;;;;;;;;;;20.60;51.90;;;;;;5031870;28;90354;-54
2023/09/14 05:20:09;;;;;;;;;;;20.50;51.90;;;;;;5030546;28;88813;-54
2023/09/14 05:22:35;;;;;;;;;;;20.50;51.90;;;;;;5030743;28;88970;-57
2023/09/14 05:25:02;;;;;;;;;;;20.50;51.90;;;;;;5032428;28;89224;-53
2023/09/14 05:27:33;;;;;;;;;;;20.50;51.90;;;;;;5033118;28;87455;-54
2023/09/14 05:29:59;;;;;;;;;;;20.50;52.00;;;;;;5034612;28;89231;-56
2023/09/14 05:32:24;;;;;;;;;;;20.50;52.00;;;;;;5031754;28;88379;-56
2023/09/14 05:34:50;;;;;;;;;;;20.50;52.00;;;;;;5034885;28;87912;-52
2023/09/14 05:37:15;;;;;;;;;;;20.40;51.90;;;;;;5029702;28;89538;-55
2023/09/14 05:39:41;;;;;;;;;;;20.40;52.10;;;;;;5029617;28;87144;-52
2023/09/14 05:42:06;;;;;;;;;;;20.50;52.10;;;;;;5032257;28;87728;-56
2023/09/14 05:44:32;;;;;;;;;;;20.40;52.10;;;;;;5033242;28;88954;-55
2023/09/14 05:46:58;;;;;;;;;;;20.40;52.10;;;;;;5033121;28;87130;-51
2023/09/14 05:49:23;;;;;;;;;;;20.40;52.10;;;;;;5027599;28;88162;-57
2023/09/14 05:51:48;;;;;;;;;;;20.40;52.10;;;;;;5034103;28;88487;-55
2023/09/14 05:54:14;;;;;;;;;;;20.40;52.20;;;;;;5034150;28;87172;-56
2023/09/14 05:56:39;;;;;;;;;;;20.40;52.20;;;;;;5032896;28;87959;-54
2023/09/14 05:59:05;;;;;;;;;;;20.40;52.20;;;;;;5030413;28;87106;-56
2023/09/14 06:01:30;;;;;;;;;;;20.40;52.20;;;;;;5031713;28;87627;-54
2023/09/14 06:03:56;;;;;;;;;;;20.40;52.20;;;;;;5034002;28;87415;-55
2023/09/14 06:06:21;;;;;;;;;;;20.40;52.20;;;;;;5032807;28;86504;-53
2023/09/14 06:08:47;;;;;;;;;;;20.40;52.20;;;;;;5030805;28;87867;-55
2023/09/14 06:11:12;;;;;;;;;;;20.30;52.20;;;;;;5033972;28;91051;-57
2023/09/14 06:13:38;;;;;;;;;;;20.40;52.20;;;;;;5033683;28;88208;-54
2023/09/14 06:16:04;;;;;;;;;;;20.40;52.10;;;;;;5029630;28;88542;-57
2023/09/14 06:18:29;;;;;;;;;;;20.40;52.20;;;;;;5031522;28;87106;-56
2023/09/14 06:20:55;;;;;;;;;;;20.40;52.20;;;;;;5031825;28;88022;-56
2023/09/14 06:23:20;;;;;;;;;;;20.40;52.20;;;;;;5032672;28;87414;-56
2023/09/14 06:25:45;;;;;;;;;;;20.40;52.20;;;;;;5030682;28;88123;-56
2023/09/14 06:28:11;;;;;;;;;;;20.40;52.30;;;;;;5030480;28;87116;-53
2023/09/14 06:30:36;;;;;;;;;;;20.40;52.20;;;;;;5033188;28;87287;-53
2023/09/14 06:33:02;;;;;;;;;;;20.40;52.20;;;;;;5026468;28;88154;-56
2023/09/14 06:35:28;;;;;;;;;;;20.40;52.20;;;;;;5025632;28;88868;-53
2023/09/14 06:37:53;;;;;;;;;;;20.40;52.20;;;;;;5030011;28;89486;-53
2023/09/14 06:40:19;;;;;;;;;;;20.40;52.30;;;;;;5035958;28;87273;-57
2023/09/14 06:42:44;;;;;;;;;;;20.40;52.30;;;;;;5028333;28;88387;-56
2023/09/14 06:45:10;;;;;;;;;;;20.40;52.20;;;;;;5031244;28;88222;-53
2023/09/14 06:47:35;;;;;;;;;;;20.40;52.20;;;;;;5033272;28;87690;-56
2023/09/14 06:50:01;;;;;;;;;;;20.40;52.30;;;;;;5031143;28;88264;-57
2023/09/14 06:52:27;;;;;;;;;;;20.40;52.30;;;;;;5032931;28;87130;-54
2023/09/14 06:54:53;;;;;;;;;;;20.40;52.20;;;;;;5031655;27;87472;-54
2023/09/14 06:57:18;;;;;;;;;;;20.40;52.30;;;;;;5030812;28;88200;-56
2023/09/14 06:59:44;;;;;;;;;;;20.40;52.40;;;;;;5035775;28;87109;-56
2023/09/14 07:02:09;;;;;;;;;;;20.40;52.40;;;;;;5030178;28;88035;-53
2023/09/14 07:04:34;;;;;;;;;;;20.40;52.30;;;;;;5030210;28;87170;-52
2023/09/14 07:07:00;;;;;;;;;;;20.40;53.00;;;;;;5032972;28;87628;-54
2023/09/14 07:09:26;;;;;;;;;;;20.40;52.30;;;;;;5028731;28;87498;-56
2023/09/14 07:11:52;;;;;;;;;;;20.40;52.30;;;;;;5031119;28;88876;-54
2023/09/14 07:14:17;;;;;;;;;;;20.40;52.30;;;;;;5030801;28;89228;-52
2023/09/14 07:16:43;;;;;;;;;;;20.40;52.30;;;;;;5031289;28;90312;-56
2023/09/14 07:19:08;;;;;;;;;;;20.40;52.30;;;;;;5029357;28;86642;-54
2023/09/14 07:21:37;;;;;;;;;;;20.40;52.30;;;;;;5029781;28;87542;-55
2023/09/14 07:24:06;;;;;;;;;;;20.40;52.40;;;;;;5032873;28;88393;-56
2023/09/14 07:26:32;;;;;;;;;;;20.40;52.40;;;;;;5032137;28;88363;-56
2023/09/14 07:28:58;;;;;;;;;;;20.40;52.40;;;;;;5029437;28;91211;-57
2023/09/14 07:31:24;;;;;;;;;;;20.50;52.40;;;;;;5025440;28;87290;-55
2023/09/14 07:33:49;;;;;;;;;;;20.50;52.40;;;;;;5033084;28;87672;-54
2023/09/14 07:36:15;;;;;;;;;;;20.50;52.30;;;;;;5033344;28;91600;-53
2023/09/14 07:38:40;;;;;;;;;;;20.50;52.50;;;;;;5032005;28;87234;-53
2023/09/14 07:41:06;;;;;;;;;;;20.50;52.40;;;;;;5028008;28;88831;-52
2023/09/14 07:43:31;;;;;;;;;;;20.50;52.40;;;;;;5036278;28;86922;-51
2023/09/14 07:45:57;;;;;;;;;;;20.50;52.40;;;;;;5029422;28;87641;-55
2023/09/14 07:48:23;;;;;;;;;;;20.50;52.40;;;;;;5026913;28;88428;-56
2023/09/14 07:50:49;;;;;;;;;;;20.50;52.40;;;;;;5027309;28;88269;-56
2023/09/14 07:53:14;;;;;;;;;;;20.50;52.40;;;;;;5031823;28;88761;-54
2023/09/14 07:55:40;;;;;;;;;;;20.50;52.60;;;;;;5029619;28;88436;-54
2023/09/14 07:58:08;;;;;;;;;;;20.50;52.50;;;;;;5031049;28;87111;-54
2023/09/14 08:00:34;;;;;;;;;;;20.50;52.50;;;;;;5029853;27;89033;-55
2023/09/14 08:03:00;;;;;;;;;;;20.50;53.20;;;;;;5029729;28;89526;-54
2023/09/14 08:05:25;;;;;;;;;;;20.50;52.50;;;;;;5030218;28;88273;-57
2023/09/14 08:07:52;;;;;;;;;;;20.50;52.60;;;;;;5024499;28;87045;-57
2023/09/14 08:10:17;;;;;;;;;;;20.50;52.60;;;;;;5031575;28;87088;-54
2023/09/14 08:12:43;;;;;;;;;;;20.50;52.70;;;;;;5033326;28;87886;-56
2023/09/14 08:15:08;;;;;;;;;;;20.50;52.70;;;;;;5030126;28;89683;-54
2023/09/14 08:17:34;;;;;;;;;;;20.40;52.70;;;;;;5026301;28;87189;-56
2023/09/14 08:20:00;;;;;;;;;;;20.50;52.70;;;;;;5030836;28;87620;-54
2023/09/14 08:22:25;;;;;;;;;;;20.50;52.80;;;;;;5029634;27;87322;-57
2023/09/14 08:24:51;;;;;;;;;;;20.50;52.70;;;;;;5032763;28;87304;-54
2023/09/14 08:27:17;;;;;;;;;;;20.50;52.80;;;;;;5034007;28;87345;-57
2023/09/14 08:29:46;;;;;;;;;;;20.50;52.80;;;;;;5035136;28;87651;-55
2023/09/14 08:32:11;;;;;;;;;;;20.50;52.80;;;;;;5031261;27;87581;-56
2023/09/14 08:34:37;;;;;;;;;;;20.50;52.80;;;;;;5032741;28;88342;-56
2023/09/14 08:37:03;;;;;;;;;;;20.50;52.70;;;;;;5030169;28;87134;-52
2023/09/14 08:39:29;;;;;;;;;;;20.60;52.80;;;;;;5035314;28;88012;-56
2023/09/14 08:41:54;;;;;;;;;;;20.60;52.70;;;;;;5036126;28;87309;-56
2023/09/14 08:44:21;;;;;;;;;;;20.60;52.70;;;;;;5031930;28;87129;-53
2023/09/14 08:46:47;;;;;;;;;;;20.60;52.70;;;;;;5032172;28;87579;-54
2023/09/14 08:49:13;;;;;;;;;;;20.60;52.70;;;;;;5036148;28;87992;-57
2023/09/14 08:51:39;;;;;;;;;;;20.60;52.60;;;;;;5037180;28;87181;-55
2023/09/14 08:54:05;;;;;;;;;;;20.70;52.70;;;;;;5030449;28;88479;-55
2023/09/14 08:56:31;;;;;;;;;;;20.60;52.60;;;;;;5033274;28;86449;-51
2023/09/14 08:59:00;;;;;;;;;;;20.70;52.60;;;;;;5034661;28;87364;-56
2023/09/14 09:01:26;;;;;;;;;;;20.70;52.70;;;;;;5031345;28;87431;-55
2023/09/14 09:03:51;;;;;;;;;;;20.70;52.70;;;;;;5031874;28;88447;-52
2023/09/14 09:06:17;;;;;;;;;;;20.70;52.80;;;;;;5036062;28;88550;-55
2023/09/14 09:08:43;;;;;;;;;;;20.70;52.80;;;;;;5033321;28;89509;-55
2023/09/14 09:11:09;;;;;;;;;;;20.70;52.70;;;;;;5031246;28;87630;-52
2023/09/14 09:13:35;;;;;;;;;;;20.70;52.70;;;;;;5029078;28;88410;-56
2023/09/14 09:16:00;;;;;;;;;;;20.70;52.70;;;;;;5034681;28;87083;-53
2023/09/14 09:18:26;;;;;;;;;;;20.70;52.70;;;;;;5029333;27;87410;-54
2023/09/14 09:20:52;;;;;;;;;;;20.70;52.70;;;;;;5033978;28;87189;-53
2023/09/14 09:23:19;;;;;;;;;;;20.70;52.60;;;;;;5031937;28;87206;-53
2023/09/14 09:25:47;;;;;;;;;;;20.70;52.80;;;;;;5036449;28;87617;-54
2023/09/14 09:28:13;;;;;;;;;;;20.80;52.80;;;;;;5029590;28;91065;-48
2023/09/14 09:30:39;;;;;;;;;;;20.80;52.80;;;;;;5031898;28;88955;-54
2023/09/14 09:33:04;;;;;;;;;;;20.80;52.80;;;;;;5037571;28;87909;-54
2023/09/14 09:35:30;;;;;;;;;;;20.80;52.90;;;;;;5032449;28;87216;-53
2023/09/14 09:37:58;;;;;;;;;;;20.80;52.70;;;;;;5034538;28;87532;-52
2023/09/14 09:40:24;;;;;;;;;;;20.80;52.90;;;;;;5027273;28;88465;-54
2023/09/14 09:42:50;;;;;;;;;;;20.80;52.90;;;;;;5034852;28;87025;-56
2023/09/14 09:45:18;;;;;;;;;;;20.80;52.80;;;;;;5029815;28;87673;-56
2023/09/14 09:47:44;;;;;;;;;;;20.80;53.00;;;;;;5027624;28;88246;-55
2023/09/14 09:50:10;;;;;;;;;;;20.80;52.80;;;;;;5029115;28;87238;-53
2023/09/14 09:52:36;;;;;;;;;;;20.90;52.90;;;;;;5032903;28;88262;-54
2023/09/14 09:55:04;;;;;;;;;;;20.90;53.10;;;;;;5033329;28;87665;-54
2023/09/14 09:57:30;;;;;;;;;;;20.90;53.00;;;;;;5030189;28;87857;-56
2023/09/14 09:59:56;;;;;;;;;;;20.90;53.20;;;;;;5031807;28;88310;-53
2023/09/14 10:02:29;;;;;;;;;;;20.90;53.00;;;;;;5034205;28;87104;-55
2023/09/14 10:04:55;;;;;;;;;;;21.00;53.30;;;;;;5028287;28;87910;-54
2023/09/14 10:07:22;;;;;;;;;;;21.00;53.50;;;;;;5026655;28;87143;-54
2023/09/14 10:09:49;;;;;;;;;;;21.00;53.10;;;;;;5033635;28;86276;-55
2023/09/14 10:12:15;;;;;;;;;;;21.00;53.10;;;;;;5034900;28;87139;-55
2023/09/14 10:14:42;;;;;;;;;;;21.00;53.10;;;;;;5031615;28;91934;-53
2023/09/14 10:17:11;;;;;;;;;;;21.00;53.90;;;;;;5025962;28;89132;-57
2023/09/14 10:19:38;;;;;;;;;;;21.00;53.20;;;;;;5031700;28;88258;-57
2023/09/14 10:22:04;;;;;;;;;;;21.00;53.20;;;;;;5034499;28;87230;-52
2023/09/14 10:24:29;;;;;;;;;;;21.10;53.20;;;;;;5026264;28;87536;-54
2023/09/14 10:26:55;;;;;;;;;;;21.10;53.30;;;;;;5032615;28;88524;-56
2023/09/14 10:29:23;;;;;;;;;;;21.10;53.30;;;;;;5034460;28;87481;-56
2023/09/14 10:31:49;;;;;;;;;;;21.10;53.30;;;;;;5034398;28;88922;-51
2023/09/14 10:34:16;;;;;;;;;;;21.10;53.40;;;;;;5029474;28;88130;-55
2023/09/14 10:36:42;;;;;;;;;;;21.20;53.40;;;;;;5030198;28;87150;-55
2023/09/14 10:39:09;;;;;;;;;;;21.20;53.30;;;;;;5031204;28;91201;-55
2023/09/14 10:41:34;;;;;;;;;;;21.20;53.40;;;;;;5030542;28;88723;-55
2023/09/14 10:44:00;;;;;;;;;;;21.20;53.30;;;;;;5026511;28;88481;-56
2023/09/14 10:46:28;;;;;;;;;;;21.20;53.20;;;;;;5030153;28;87440;-57
2023/09/14 10:48:55;;;;;;;;;;;21.20;53.20;;;;;;5033449;28;87143;-55
2023/09/14 10:51:21;;;;;;;;;;;21.20;53.30;;;;;;5030985;28;88907;-56
2023/09/14 10:53:47;;;;;;;;;;;21.30;53.20;;;;;;5032242;27;89590;-51
2023/09/14 10:56:33;;;;;;;;;;;21.30;53.30;;;;;;5030145;28;87100;-55
2023/09/14 10:59:08;;;;;;;;;;;21.30;53.30;;;;;;5033803;28;87384;-56
2023/09/14 11:01:43;;;;;;;;;;;21.30;53.10;;;;;;5028675;28;87340;-54
2023/09/14 11:04:11;;;;;;;;;;;21.40;53.10;;;;;;5030640;28;87552;-54
2023/09/14 11:06:46;;;;;;;;;;;21.40;53.10;;;;;;5030977;28;89139;-52
2023/09/14 11:09:15;;;;;;;;;;;21.40;53.20;;;;;;5032129;28;87419;-56
2023/09/14 11:11:42;;;;;;;;;;;21.40;53.10;;;;;;5031212;28;87482;-54
2023/09/14 11:14:09;;;;;;;;;;;21.50;53.10;;;;;;5030330;28;87459;-56
2023/09/14 11:16:44;;;;;;;;;;;21.50;53.20;;;;;;5032961;28;87166;-53
2023/09/14 11:19:10;;;;;;;;;;;21.50;53.00;;;;;;5029889;28;87623;-54
2023/09/14 11:21:35;;;;;;;;;;;21.50;52.90;;;;;;5030670;28;88251;-54
2023/09/14 11:24:05;;;;;;;;;;;21.60;52.90;;;;;;5031963;28;86657;-56
2023/09/14 11:26:34;;;;;;;;;;;21.60;53.10;;;;;;5028250;28;88585;-54
2023/09/14 11:29:00;;;;;;;;;;;21.60;53.00;;;;;;5031084;28;87821;-56
2023/09/14 11:31:32;;;;;;;;;;;21.60;52.90;;;;;;5025060;28;89521;-54
2023/09/14 11:33:58;;;;;;;;;;;21.70;53.00;;;;;;5031465;28;87713;-54
2023/09/14 11:36:29;;;;;;;;;;;21.60;53.00;;;;;;5030966;28;87922;-55
2023/09/14 11:38:55;;;;;;;;;;;21.70;53.00;;;;;;5027426;28;87544;-52
2023/09/14 11:41:37;;;;;;;;;;;21.70;53.10;;;;;;5028588;28;88194;-56
2023/09/14 11:44:04;;;;;;;;;;;21.60;53.00;;;;;;5036463;28;87010;-54
2023/09/14 11:46:29;;;;;;;;;;;21.70;53.10;;;;;;5026663;28;89535;-54
2023/09/14 11:48:55;;;;;;;;;;;21.70;53.10;;;;;;5029717;28;86438;-53
2023/09/14 11:51:24;;;;;;;;;;;21.70;52.90;;;;;;5029786;28;87066;-55
2023/09/14 11:53:50;;;;;;;;;;;21.80;52.90;;;;;;5030480;28;88801;-56
2023/09/14 11:56:18;;;;;;;;;;;21.80;52.90;;;;;;5029605;27;89114;-54
2023/09/14 11:58:44;;;;;;;;;;;21.80;53.60;;;;;;5031674;28;89709;-57
2023/09/14 12:01:12;;;;;;;;;;;21.80;52.90;;;;;;5032791;28;89536;-56
2023/09/14 12:03:38;;;;;;;;;;;21.80;52.90;;;;;;5038983;28;87022;-57
2023/09/14 12:06:04;;;;;;;;;;;21.90;53.00;;;;;;5033334;28;89653;-55
2023/09/14 12:08:30;;;;;;;;;;;21.90;52.80;;;;;;5034104;28;87296;-54
2023/09/14 12:10:56;;;;;;;;;;;21.90;52.80;;;;;;5035750;28;87837;-53
2023/09/14 12:13:22;;;;;;;;;;;22.00;53.00;;;;;;5034253;28;87202;-54
2023/09/14 12:15:55;;;;;;;;;;;22.00;52.90;;;;;;5033422;28;87488;-51
2023/09/14 12:18:21;;;;;;;;;;;22.00;52.80;;;;;;5031763;28;87637;-52
2023/09/14 12:20:47;;;;;;;;;;;22.00;52.80;;;;;;5033987;28;89302;-57
2023/09/14 12:23:13;;;;;;;;;;;22.10;52.70;;;;;;5034393;28;87208;-53
2023/09/14 12:25:40;;;;;;;;;;;22.10;52.80;;;;;;5031196;28;90251;-53
2023/09/14 12:28:09;;;;;;;;;;;22.10;52.70;;;;;;5033797;28;87637;-56
2023/09/14 12:30:36;;;;;;;;;;;22.10;52.70;;;;;;5034319;28;87123;-53
2023/09/14 12:33:02;;;;;;;;;;;22.20;52.80;;;;;;5029144;28;88515;-52
2023/09/14 12:35:28;;;;;;;;;;;22.20;52.90;;;;;;5032019;28;87401;-56
2023/09/14 12:37:58;;;;;;;;;;;22.20;52.70;;;;;;5035509;28;87634;-54
2023/09/14 12:40:24;;;;;;;;;;;22.20;52.70;;;;;;5035006;28;89365;-54
2023/09/14 12:42:50;;;;;;;;;;;22.20;52.80;;;;;;5028017;28;87923;-56
2023/09/14 12:45:16;;;;;;;;;;;22.20;52.80;;;;;;5033479;28;87922;-54
2023/09/14 12:47:44;;;;;;;;;;;22.20;53.00;;;;;;5037290;28;87947;-54
2023/09/14 12:50:15;;;;;;;;;;;22.20;52.90;;;;;;5033089;27;88261;-52
2023/09/14 12:52:41;;;;;;;;;;;22.20;53.00;;;;;;5032763;28;88928;-54
2023/09/14 12:55:11;;;;;;;;;;;22.20;53.00;;;;;;5031356;28;87928;-53
2023/09/14 12:57:37;;;;;;;;;;;22.20;52.80;;;;;;5034481;28;87666;-57
2023/09/14 13:00:14;;;;;;;;;;;22.30;52.80;;;;;;5036659;28;88509;-56
2023/09/14 13:02:44;;;;;;;;;;;22.30;52.80;;;;;;5026664;28;86417;-51
2023/09/14 13:05:11;;;;;;;;;;;22.30;52.80;;;;;;5033927;28;87025;-53
2023/09/14 13:07:36;;;;;;;;;;;22.30;52.80;;;;;;5031522;27;88201;-54
2023/09/14 13:10:06;;;;;;;;;;;22.30;52.80;;;;;;5032286;28;88323;-58
2023/09/14 13:12:32;;;;;;;;;;;22.30;52.80;;;;;;5033268;28;88261;-57
2023/09/14 13:14:57;;;;;;;;;;;22.30;52.80;;;;;;5033706;28;87144;-54
2023/09/14 13:17:23;;;;;;;;;;;22.40;52.90;;;;;;5032641;28;90589;-53
2023/09/14 13:19:48;;;;;;;;;;;22.40;52.90;;;;;;5036004;28;88643;-56
2023/09/14 13:22:14;;;;;;;;;;;22.40;52.90;;;;;;5031829;28;87343;-53
2023/09/14 13:24:40;;;;;;;;;;;22.40;52.80;;;;;;5031708;27;88000;-56
2023/09/14 13:27:05;;;;;;;;;;;22.40;52.80;;;;;;5034186;28;87614;-55
2023/09/14 13:29:31;;;;;;;;;;;22.50;52.80;;;;;;5028708;28;87170;-56
2023/09/14 13:31:56;;;;;;;;;;;22.50;52.80;;;;;;5034475;28;88045;-54
2023/09/14 13:34:22;;;;;;;;;;;22.50;52.80;;;;;;5033442;28;88141;-54
2023/09/14 13:36:52;;;;;;;;;;;22.50;52.80;;;;;;5030314;28;89090;-57
2023/09/14 13:39:18;;;;;;;;;;;22.50;52.80;;;;;;5028718;28;89036;-56
2023/09/14 13:41:44;;;;;;;;;;;22.50;52.70;;;;;;5034028;28;87036;-55
2023/09/14 13:44:10;;;;;;;;;;;22.50;52.70;;;;;;5033871;28;87098;-57
2023/09/14 13:46:35;;;;;;;;;;;22.50;52.70;;;;;;5029325;28;89731;-52
2023/09/14 13:49:01;;;;;;;;;;;22.60;52.70;;;;;;5033270;28;89141;-57
2023/09/14 13:51:26;;;;;;;;;;;22.60;52.60;;;;;;5036948;28;87647;-55
2023/09/14 13:53:52;;;;;;;;;;;22.60;52.60;;;;;;5035488;27;88120;-55
2023/09/14 13:56:17;;;;;;;;;;;22.60;52.60;;;;;;5031313;27;89196;-56
2023/09/14 13:58:43;;;;;;;;;;;22.60;52.50;;;;;;5031831;28;88034;-54
2023/09/14 14:01:08;;;;;;;;;;;22.60;52.40;;;;;;5031489;28;87234;-57
2023/09/14 14:03:34;;;;;;;;;;;22.70;52.50;;;;;;5033471;28;88003;-55
2023/09/14 14:05:59;;;;;;;;;;;22.70;52.40;;;;;;5032566;28;88026;-56
2023/09/14 14:08:26;;;;;;;;;;;22.70;52.40;;;;;;5028737;28;87775;-56
2023/09/14 14:10:51;;;;;;;;;;;22.70;52.40;;;;;;5032585;28;89191;-52